sensor_id;sensor_type;location;lat;lon;timestamp;P1;durP1;ratioP1;P2;durP2;ratioP2
69030;SDS011;56083;48.774;8.942;2023-05-08T00:00:37;23.83;;;17.08;;
69030;SDS011;56083;48.774;8.942;2023-05-08T00:03:03;21.45;;;15.90;;
69030;SDS011;56083;48.774;8.942;2023-05-08T00:05:29;17.98;;;13.30;;
69030;SDS011;56083;48.774;8.942;2023-05-08T00:07:55;17.15;;;13.98;;
69030;SDS011;56083;48.774;8.942;2023-05-08T00:10:25;20.67;;;14.13;;
69030;SDS011;56083;48.774;8.942;2023-05-08T00:12:52;19.92;;;15.45;;
69030;SDS011;56083;48.774;8.942;2023-05-08T00:15:17;18.40;;;15.43;;
69030;SDS011;56083;48.774;8.942;2023-05-08T00:17:43;18.48;;;15.38;;
69030;SDS011;56083;48.774;8.942;2023-05-08T00:20:09;20.85;;;16.92;;
69030;SDS011;56083;48.774;8.942;2023-05-08T00:22:35;20.88;;;16.73;;
69030;SDS011;56083;48.774;8.942;2023-05-08T00:25:01;25.40;;;19.15;;
69030;SDS011;56083;48.774;8.942;2023-05-08T00:27:28;27.25;;;19.65;;
69030;SDS011;56083;48.774;8.942;2023-05-08T00:29:54;25.35;;;19.77;;
69030;SDS011;56083;48.774;8.942;2023-05-08T00:32:19;16.75;;;13.93;;
69030;SDS011;56083;48.774;8.942;2023-05-08T00:34:45;21.73;;;15.65;;
69030;SDS011;56083;48.774;8.942;2023-05-08T00:37:11;19.55;;;14.57;;
69030;SDS011;56083;48.774;8.942;2023-05-08T00:39:36;22.67;;;13.85;;
69030;SDS011;56083;48.774;8.942;2023-05-08T00:42:02;19.48;;;13.57;;
69030;SDS011;56083;48.774;8.942;2023-05-08T00:44:27;19.80;;;14.10;;
69030;SDS011;56083;48.774;8.942;2023-05-08T00:46:53;22.83;;;15.55;;
69030;SDS011;56083;48.774;8.942;2023-05-08T00:49:19;22.55;;;16.40;;
69030;SDS011;56083;48.774;8.942;2023-05-08T00:51:45;23.15;;;16.88;;
69030;SDS011;56083;48.774;8.942;2023-05-08T00:54:13;19.15;;;15.93;;
69030;SDS011;56083;48.774;8.942;2023-05-08T00:56:39;23.63;;;17.55;;
69030;SDS011;56083;48.774;8.942;2023-05-08T00:59:07;22.85;;;17.77;;
69030;SDS011;56083;48.774;8.942;2023-05-08T01:01:36;28.10;;;18.45;;
69030;SDS011;56083;48.774;8.942;2023-05-08T01:04:02;21.20;;;16.52;;
69030;SDS011;56083;48.774;8.942;2023-05-08T01:06:28;25.77;;;19.33;;
69030;SDS011;56083;48.774;8.942;2023-05-08T01:08:54;28.65;;;21.08;;
69030;SDS011;56083;48.774;8.942;2023-05-08T01:16:47;31.65;;;22.73;;
69030;SDS011;56083;48.774;8.942;2023-05-08T01:27:45;32.58;;;23.25;;
69030;SDS011;56083;48.774;8.942;2023-05-08T01:41:17;32.60;;;22.45;;
69030;SDS011;56083;48.774;8.942;2023-05-08T01:43:59;29.63;;;21.85;;
69030;SDS011;56083;48.774;8.942;2023-05-08T01:46:33;31.67;;;22.85;;
69030;SDS011;56083;48.774;8.942;2023-05-08T01:51:45;36.67;;;26.55;;
69030;SDS011;56083;48.774;8.942;2023-05-08T01:54:18;36.10;;;24.08;;
69030;SDS011;56083;48.774;8.942;2023-05-08T01:59:13;32.05;;;22.92;;
69030;SDS011;56083;48.774;8.942;2023-05-08T02:01:44;32.10;;;22.40;;
69030;SDS011;56083;48.774;8.942;2023-05-08T02:04:12;33.95;;;22.27;;
69030;SDS011;56083;48.774;8.942;2023-05-08T02:06:39;30.45;;;20.90;;
69030;SDS011;56083;48.774;8.942;2023-05-08T02:09:09;28.33;;;20.75;;
69030;SDS011;56083;48.774;8.942;2023-05-08T02:11:36;30.40;;;21.98;;
69030;SDS011;56083;48.774;8.942;2023-05-08T02:14:03;29.17;;;22.52;;
69030;SDS011;56083;48.774;8.942;2023-05-08T02:16:32;33.28;;;23.33;;
69030;SDS011;56083;48.774;8.942;2023-05-08T02:19:00;33.63;;;23.63;;
69030;SDS011;56083;48.774;8.942;2023-05-08T02:21:27;33.47;;;24.38;;
69030;SDS011;56083;48.774;8.942;2023-05-08T02:23:55;32.38;;;23.00;;
69030;SDS011;56083;48.774;8.942;2023-05-08T02:26:23;33.28;;;24.48;;
69030;SDS011;56083;48.774;8.942;2023-05-08T02:28:51;40.00;;;27.30;;
69030;SDS011;56083;48.774;8.942;2023-05-08T02:31:19;35.83;;;25.35;;
69030;SDS011;56083;48.774;8.942;2023-05-08T02:33:45;43.65;;;28.08;;
69030;SDS011;56083;48.774;8.942;2023-05-08T02:36:14;40.53;;;27.02;;
69030;SDS011;56083;48.774;8.942;2023-05-08T02:38:43;45.30;;;29.05;;
69030;SDS011;56083;48.774;8.942;2023-05-08T02:41:12;39.33;;;26.75;;
69030;SDS011;56083;48.774;8.942;2023-05-08T02:43:39;38.85;;;26.70;;
69030;SDS011;56083;48.774;8.942;2023-05-08T02:46:09;44.95;;;28.30;;
69030;SDS011;56083;48.774;8.942;2023-05-08T02:48:43;38.65;;;27.08;;
69030;SDS011;56083;48.774;8.942;2023-05-08T02:51:38;34.60;;;23.45;;
69030;SDS011;56083;48.774;8.942;2023-05-08T02:57:02;35.38;;;23.45;;
69030;SDS011;56083;48.774;8.942;2023-05-08T02:59:36;32.15;;;23.83;;
69030;SDS011;56083;48.774;8.942;2023-05-08T03:04:58;39.05;;;26.38;;
69030;SDS011;56083;48.774;8.942;2023-05-08T03:07:28;39.95;;;27.48;;
69030;SDS011;56083;48.774;8.942;2023-05-08T03:09:58;40.22;;;26.25;;
69030;SDS011;56083;48.774;8.942;2023-05-08T03:12:27;36.83;;;26.58;;
69030;SDS011;56083;48.774;8.942;2023-05-08T03:17:35;52.55;;;31.98;;
69030;SDS011;56083;48.774;8.942;2023-05-08T03:20:04;48.78;;;30.88;;
69030;SDS011;56083;48.774;8.942;2023-05-08T03:22:33;41.08;;;28.67;;
69030;SDS011;56083;48.774;8.942;2023-05-08T03:25:01;40.70;;;26.17;;
69030;SDS011;56083;48.774;8.942;2023-05-08T03:27:29;30.77;;;24.20;;
69030;SDS011;56083;48.774;8.942;2023-05-08T03:29:57;40.72;;;26.25;;
69030;SDS011;56083;48.774;8.942;2023-05-08T03:32:26;36.83;;;25.58;;
69030;SDS011;56083;48.774;8.942;2023-05-08T03:34:53;38.90;;;26.73;;
69030;SDS011;56083;48.774;8.942;2023-05-08T03:37:22;54.78;;;34.70;;
69030;SDS011;56083;48.774;8.942;2023-05-08T03:39:49;58.38;;;35.65;;
69030;SDS011;56083;48.774;8.942;2023-05-08T03:42:16;57.30;;;35.42;;
69030;SDS011;56083;48.774;8.942;2023-05-08T03:44:49;56.28;;;36.10;;
69030;SDS011;56083;48.774;8.942;2023-05-08T03:47:16;57.03;;;37.05;;
69030;SDS011;56083;48.774;8.942;2023-05-08T03:49:43;59.40;;;37.60;;
69030;SDS011;56083;48.774;8.942;2023-05-08T03:52:11;60.65;;;38.90;;
69030;SDS011;56083;48.774;8.942;2023-05-08T03:54:37;63.25;;;37.78;;
69030;SDS011;56083;48.774;8.942;2023-05-08T03:57:03;62.95;;;39.85;;
69030;SDS011;56083;48.774;8.942;2023-05-08T03:59:33;87.50;;;48.40;;
69030;SDS011;56083;48.774;8.942;2023-05-08T04:02:13;81.63;;;48.20;;
69030;SDS011;56083;48.774;8.942;2023-05-08T04:05:04;84.70;;;47.47;;
69030;SDS011;56083;48.774;8.942;2023-05-08T04:07:41;70.45;;;41.17;;
69030;SDS011;56083;48.774;8.942;2023-05-08T04:10:23;65.95;;;38.55;;
69030;SDS011;56083;48.774;8.942;2023-05-08T04:12:56;68.72;;;38.42;;
69030;SDS011;56083;48.774;8.942;2023-05-08T04:15:31;78.45;;;41.97;;
69030;SDS011;56083;48.774;8.942;2023-05-08T04:18:01;88.25;;;45.55;;
69030;SDS011;56083;48.774;8.942;2023-05-08T04:20:40;78.85;;;44.00;;
69030;SDS011;56083;48.774;8.942;2023-05-08T04:23:10;81.15;;;44.17;;
69030;SDS011;56083;48.774;8.942;2023-05-08T04:25:41;79.68;;;44.08;;
69030;SDS011;56083;48.774;8.942;2023-05-08T04:28:07;85.35;;;47.47;;
69030;SDS011;56083;48.774;8.942;2023-05-08T04:30:34;80.20;;;46.15;;
69030;SDS011;56083;48.774;8.942;2023-05-08T04:33:01;77.88;;;45.42;;
69030;SDS011;56083;48.774;8.942;2023-05-08T04:35:28;71.82;;;43.83;;
69030;SDS011;56083;48.774;8.942;2023-05-08T04:37:53;78.45;;;46.90;;
69030;SDS011;56083;48.774;8.942;2023-05-08T04:40:22;100.82;;;46.78;;
69030;SDS011;56083;48.774;8.942;2023-05-08T04:42:49;75.15;;;43.90;;
69030;SDS011;56083;48.774;8.942;2023-05-08T04:45:14;76.72;;;46.30;;
69030;SDS011;56083;48.774;8.942;2023-05-08T04:47:40;72.53;;;45.28;;
69030;SDS011;56083;48.774;8.942;2023-05-08T04:50:06;70.05;;;44.00;;
69030;SDS011;56083;48.774;8.942;2023-05-08T04:52:32;73.18;;;44.28;;
69030;SDS011;56083;48.774;8.942;2023-05-08T04:54:57;70.88;;;45.20;;
69030;SDS011;56083;48.774;8.942;2023-05-08T04:57:23;70.93;;;43.60;;
69030;SDS011;56083;48.774;8.942;2023-05-08T04:59:49;63.85;;;41.17;;
69030;SDS011;56083;48.774;8.942;2023-05-08T05:02:15;75.22;;;43.92;;
69030;SDS011;56083;48.774;8.942;2023-05-08T05:04:40;60.28;;;40.00;;
69030;SDS011;56083;48.774;8.942;2023-05-08T05:07:06;60.05;;;41.03;;
69030;SDS011;56083;48.774;8.942;2023-05-08T05:09:31;58.92;;;40.10;;
69030;SDS011;56083;48.774;8.942;2023-05-08T05:12:02;62.17;;;41.70;;
69030;SDS011;56083;48.774;8.942;2023-05-08T05:14:28;59.97;;;40.92;;
69030;SDS011;56083;48.774;8.942;2023-05-08T05:16:54;62.53;;;41.45;;
69030;SDS011;56083;48.774;8.942;2023-05-08T05:19:19;58.38;;;40.08;;
69030;SDS011;56083;48.774;8.942;2023-05-08T05:21:45;61.95;;;41.05;;
69030;SDS011;56083;48.774;8.942;2023-05-08T05:24:11;64.15;;;42.13;;
69030;SDS011;56083;48.774;8.942;2023-05-08T05:26:36;63.13;;;41.70;;
69030;SDS011;56083;48.774;8.942;2023-05-08T05:29:02;59.17;;;39.72;;
69030;SDS011;56083;48.774;8.942;2023-05-08T05:31:28;67.88;;;43.17;;
69030;SDS011;56083;48.774;8.942;2023-05-08T05:33:54;62.85;;;41.10;;
69030;SDS011;56083;48.774;8.942;2023-05-08T05:36:20;63.40;;;40.35;;
69030;SDS011;56083;48.774;8.942;2023-05-08T05:38:46;58.30;;;39.55;;
69030;SDS011;56083;48.774;8.942;2023-05-08T05:41:12;61.58;;;39.22;;
69030;SDS011;56083;48.774;8.942;2023-05-08T05:43:37;53.58;;;36.70;;
69030;SDS011;56083;48.774;8.942;2023-05-08T05:46:03;52.55;;;37.03;;
69030;SDS011;56083;48.774;8.942;2023-05-08T05:48:30;49.72;;;34.25;;
69030;SDS011;56083;48.774;8.942;2023-05-08T05:50:55;46.50;;;32.25;;
69030;SDS011;56083;48.774;8.942;2023-05-08T05:53:21;45.67;;;32.42;;
69030;SDS011;56083;48.774;8.942;2023-05-08T05:55:47;47.17;;;32.03;;
69030;SDS011;56083;48.774;8.942;2023-05-08T05:58:13;46.30;;;31.13;;
69030;SDS011;56083;48.774;8.942;2023-05-08T06:00:39;40.60;;;28.40;;
69030;SDS011;56083;48.774;8.942;2023-05-08T06:03:05;40.83;;;29.05;;
69030;SDS011;56083;48.774;8.942;2023-05-08T06:05:31;37.25;;;28.58;;
69030;SDS011;56083;48.774;8.942;2023-05-08T06:07:56;38.53;;;24.52;;
69030;SDS011;56083;48.774;8.942;2023-05-08T06:10:22;38.67;;;26.80;;
69030;SDS011;56083;48.774;8.942;2023-05-08T06:12:48;39.40;;;25.67;;
69030;SDS011;56083;48.774;8.942;2023-05-08T06:15:13;31.42;;;24.33;;
69030;SDS011;56083;48.774;8.942;2023-05-08T06:17:39;31.02;;;24.42;;
69030;SDS011;56083;48.774;8.942;2023-05-08T06:20:05;30.60;;;23.08;;
69030;SDS011;56083;48.774;8.942;2023-05-08T06:22:32;31.02;;;23.48;;
69030;SDS011;56083;48.774;8.942;2023-05-08T06:24:58;30.50;;;22.50;;
69030;SDS011;56083;48.774;8.942;2023-05-08T06:27:24;28.08;;;21.80;;
69030;SDS011;56083;48.774;8.942;2023-05-08T06:29:50;24.15;;;19.35;;
69030;SDS011;56083;48.774;8.942;2023-05-08T06:32:20;27.42;;;20.63;;
69030;SDS011;56083;48.774;8.942;2023-05-08T06:34:45;23.88;;;18.90;;
69030;SDS011;56083;48.774;8.942;2023-05-08T06:37:11;18.83;;;14.63;;
69030;SDS011;56083;48.774;8.942;2023-05-08T06:39:38;16.80;;;14.75;;
69030;SDS011;56083;48.774;8.942;2023-05-08T06:42:03;24.98;;;17.67;;
69030;SDS011;56083;48.774;8.942;2023-05-08T06:44:36;19.88;;;16.65;;
69030;SDS011;56083;48.774;8.942;2023-05-08T06:47:01;23.40;;;16.65;;
69030;SDS011;56083;48.774;8.942;2023-05-08T06:49:27;18.45;;;15.85;;
69030;SDS011;56083;48.774;8.942;2023-05-08T06:51:52;20.83;;;15.80;;
69030;SDS011;56083;48.774;8.942;2023-05-08T06:54:18;18.83;;;15.40;;
69030;SDS011;56083;48.774;8.942;2023-05-08T06:56:44;17.48;;;15.35;;
69030;SDS011;56083;48.774;8.942;2023-05-08T06:59:10;18.83;;;14.77;;
69030;SDS011;56083;48.774;8.942;2023-05-08T07:01:35;15.80;;;13.75;;
69030;SDS011;56083;48.774;8.942;2023-05-08T07:04:01;15.10;;;12.88;;
69030;SDS011;56083;48.774;8.942;2023-05-08T07:06:27;14.35;;;11.48;;
69030;SDS011;56083;48.774;8.942;2023-05-08T07:08:54;14.00;;;11.32;;
69030;SDS011;56083;48.774;8.942;2023-05-08T07:11:20;14.93;;;10.98;;
69030;SDS011;56083;48.774;8.942;2023-05-08T07:13:46;14.07;;;11.73;;
69030;SDS011;56083;48.774;8.942;2023-05-08T07:16:12;12.52;;;10.00;;
69030;SDS011;56083;48.774;8.942;2023-05-08T07:18:39;15.48;;;11.90;;
69030;SDS011;56083;48.774;8.942;2023-05-08T07:21:06;17.23;;;11.63;;
69030;SDS011;56083;48.774;8.942;2023-05-08T07:23:32;15.48;;;11.35;;
69030;SDS011;56083;48.774;8.942;2023-05-08T07:25:57;16.52;;;11.68;;
69030;SDS011;56083;48.774;8.942;2023-05-08T07:28:23;13.88;;;10.88;;
69030;SDS011;56083;48.774;8.942;2023-05-08T07:30:49;14.00;;;10.23;;
69030;SDS011;56083;48.774;8.942;2023-05-08T07:33:15;12.43;;;9.40;;
69030;SDS011;56083;48.774;8.942;2023-05-08T07:35:42;18.45;;;11.32;;
69030;SDS011;56083;48.774;8.942;2023-05-08T07:38:07;14.90;;;11.15;;
69030;SDS011;56083;48.774;8.942;2023-05-08T07:40:33;13.88;;;11.43;;
69030;SDS011;56083;48.774;8.942;2023-05-08T07:42:59;15.73;;;11.10;;
69030;SDS011;56083;48.774;8.942;2023-05-08T07:45:24;14.60;;;12.00;;
69030;SDS011;56083;48.774;8.942;2023-05-08T07:47:51;18.02;;;11.95;;
69030;SDS011;56083;48.774;8.942;2023-05-08T07:50:18;16.98;;;12.65;;
69030;SDS011;56083;48.774;8.942;2023-05-08T07:52:45;14.68;;;11.98;;
69030;SDS011;56083;48.774;8.942;2023-05-08T07:55:11;15.27;;;13.05;;
69030;SDS011;56083;48.774;8.942;2023-05-08T07:57:38;15.02;;;12.98;;
69030;SDS011;56083;48.774;8.942;2023-05-08T08:00:05;16.60;;;12.18;;
69030;SDS011;56083;48.774;8.942;2023-05-08T08:02:35;14.77;;;10.98;;
69030;SDS011;56083;48.774;8.942;2023-05-08T08:05:02;13.93;;;11.15;;
69030;SDS011;56083;48.774;8.942;2023-05-08T08:07:28;14.32;;;10.93;;
69030;SDS011;56083;48.774;8.942;2023-05-08T08:09:54;13.35;;;9.73;;
69030;SDS011;56083;48.774;8.942;2023-05-08T08:12:19;13.23;;;9.30;;
69030;SDS011;56083;48.774;8.942;2023-05-08T08:14:45;11.45;;;8.05;;
69030;SDS011;56083;48.774;8.942;2023-05-08T08:17:11;9.43;;;7.78;;
69030;SDS011;56083;48.774;8.942;2023-05-08T08:19:36;8.95;;;8.02;;
69030;SDS011;56083;48.774;8.942;2023-05-08T08:22:02;13.23;;;8.80;;
69030;SDS011;56083;48.774;8.942;2023-05-08T08:24:27;11.07;;;8.90;;
69030;SDS011;56083;48.774;8.942;2023-05-08T08:26:53;9.98;;;8.40;;
69030;SDS011;56083;48.774;8.942;2023-05-08T08:29:19;11.70;;;7.65;;
69030;SDS011;56083;48.774;8.942;2023-05-08T08:31:45;10.55;;;7.22;;
69030;SDS011;56083;48.774;8.942;2023-05-08T08:34:11;9.60;;;7.43;;
69030;SDS011;56083;48.774;8.942;2023-05-08T08:36:37;11.13;;;7.20;;
69030;SDS011;56083;48.774;8.942;2023-05-08T08:39:03;11.00;;;7.78;;
69030;SDS011;56083;48.774;8.942;2023-05-08T08:41:29;8.20;;;7.22;;
69030;SDS011;56083;48.774;8.942;2023-05-08T08:43:55;9.40;;;7.78;;
69030;SDS011;56083;48.774;8.942;2023-05-08T08:46:24;9.77;;;8.00;;
69030;SDS011;56083;48.774;8.942;2023-05-08T08:48:52;9.98;;;8.57;;
69030;SDS011;56083;48.774;8.942;2023-05-08T08:51:23;15.60;;;10.82;;
69030;SDS011;56083;48.774;8.942;2023-05-08T08:56:37;12.63;;;11.18;;
69030;SDS011;56083;48.774;8.942;2023-05-08T08:59:06;13.60;;;9.98;;
69030;SDS011;56083;48.774;8.942;2023-05-08T09:01:33;10.40;;;7.80;;
69030;SDS011;56083;48.774;8.942;2023-05-08T09:04:01;11.10;;;8.20;;
69030;SDS011;56083;48.774;8.942;2023-05-08T09:06:27;12.20;;;8.88;;
69030;SDS011;56083;48.774;8.942;2023-05-08T09:08:54;10.35;;;7.97;;
69030;SDS011;56083;48.774;8.942;2023-05-08T09:11:21;11.82;;;8.32;;
69030;SDS011;56083;48.774;8.942;2023-05-08T09:13:46;9.68;;;7.70;;
69030;SDS011;56083;48.774;8.942;2023-05-08T09:16:12;8.70;;;6.78;;
69030;SDS011;56083;48.774;8.942;2023-05-08T09:18:39;10.20;;;7.45;;
69030;SDS011;56083;48.774;8.942;2023-05-08T09:21:05;9.45;;;6.90;;
69030;SDS011;56083;48.774;8.942;2023-05-08T09:23:31;9.50;;;6.30;;
69030;SDS011;56083;48.774;8.942;2023-05-08T09:25:56;9.75;;;7.18;;
69030;SDS011;56083;48.774;8.942;2023-05-08T09:28:23;7.97;;;6.97;;
69030;SDS011;56083;48.774;8.942;2023-05-08T09:33:22;12.15;;;6.40;;
69030;SDS011;56083;48.774;8.942;2023-05-08T09:35:49;8.20;;;6.25;;
69030;SDS011;56083;48.774;8.942;2023-05-08T09:38:35;7.50;;;6.47;;
69030;SDS011;56083;48.774;8.942;2023-05-08T09:43:34;5.63;;;5.05;;
69030;SDS011;56083;48.774;8.942;2023-05-08T09:46:21;7.35;;;5.50;;
69030;SDS011;56083;48.774;8.942;2023-05-08T09:48:50;8.35;;;5.55;;
69030;SDS011;56083;48.774;8.942;2023-05-08T09:51:18;7.72;;;6.13;;
69030;SDS011;56083;48.774;8.942;2023-05-08T09:53:44;6.38;;;5.63;;
69030;SDS011;56083;48.774;8.942;2023-05-08T09:56:10;6.50;;;5.47;;
69030;SDS011;56083;48.774;8.942;2023-05-08T09:58:39;6.43;;;5.50;;
69030;SDS011;56083;48.774;8.942;2023-05-08T10:01:06;8.85;;;6.70;;
69030;SDS011;56083;48.774;8.942;2023-05-08T10:03:45;7.03;;;5.63;;
69030;SDS011;56083;48.774;8.942;2023-05-08T10:06:12;8.93;;;6.70;;
69030;SDS011;56083;48.774;8.942;2023-05-08T10:08:38;8.93;;;6.47;;
69030;SDS011;56083;48.774;8.942;2023-05-08T10:13:40;6.43;;;5.30;;
69030;SDS011;56083;48.774;8.942;2023-05-08T10:16:06;5.95;;;5.28;;
69030;SDS011;56083;48.774;8.942;2023-05-08T10:18:35;6.07;;;4.63;;
69030;SDS011;56083;48.774;8.942;2023-05-08T10:21:05;5.88;;;4.60;;
69030;SDS011;56083;48.774;8.942;2023-05-08T10:23:33;6.00;;;4.30;;
69030;SDS011;56083;48.774;8.942;2023-05-08T10:26:00;7.55;;;5.05;;
69030;SDS011;56083;48.774;8.942;2023-05-08T10:28:41;7.60;;;5.05;;
69030;SDS011;56083;48.774;8.942;2023-05-08T10:31:24;9.55;;;3.97;;
69030;SDS011;56083;48.774;8.942;2023-05-08T10:33:53;4.60;;;4.15;;
69030;SDS011;56083;48.774;8.942;2023-05-08T10:36:23;4.97;;;4.10;;
69030;SDS011;56083;48.774;8.942;2023-05-08T10:38:50;6.68;;;4.05;;
69030;SDS011;56083;48.774;8.942;2023-05-08T10:41:16;6.55;;;3.65;;
69030;SDS011;56083;48.774;8.942;2023-05-08T10:43:43;5.07;;;2.97;;
69030;SDS011;56083;48.774;8.942;2023-05-08T10:46:28;2.97;;;2.67;;
69030;SDS011;56083;48.774;8.942;2023-05-08T10:49:06;5.20;;;2.33;;
69030;SDS011;56083;48.774;8.942;2023-05-08T10:51:57;2.67;;;2.00;;
69030;SDS011;56083;48.774;8.942;2023-05-08T10:57:17;3.22;;;2.20;;
69030;SDS011;56083;48.774;8.942;2023-05-08T10:59:43;3.85;;;2.60;;
69030;SDS011;56083;48.774;8.942;2023-05-08T11:02:10;4.50;;;2.60;;
69030;SDS011;56083;48.774;8.942;2023-05-08T11:04:36;2.80;;;2.20;;
69030;SDS011;56083;48.774;8.942;2023-05-08T11:07:02;3.28;;;2.40;;
69030;SDS011;56083;48.774;8.942;2023-05-08T11:15:07;4.82;;;2.42;;
69030;SDS011;56083;48.774;8.942;2023-05-08T11:17:34;5.80;;;1.92;;
69030;SDS011;56083;48.774;8.942;2023-05-08T11:20:03;5.22;;;2.00;;
69030;SDS011;56083;48.774;8.942;2023-05-08T11:22:31;5.00;;;2.20;;
69030;SDS011;56083;48.774;8.942;2023-05-08T11:27:35;3.35;;;2.00;;
69030;SDS011;56083;48.774;8.942;2023-05-08T11:41:00;4.55;;;3.88;;
69030;SDS011;56083;48.774;8.942;2023-05-08T11:46:03;4.80;;;3.75;;
69030;SDS011;56083;48.774;8.942;2023-05-08T11:48:29;5.65;;;3.45;;
69030;SDS011;56083;48.774;8.942;2023-05-08T11:50:55;4.10;;;3.42;;
69030;SDS011;56083;48.774;8.942;2023-05-08T11:53:21;7.53;;;3.95;;
69030;SDS011;56083;48.774;8.942;2023-05-08T11:55:53;5.78;;;4.43;;
69030;SDS011;56083;48.774;8.942;2023-05-08T11:58:19;5.32;;;3.40;;
69030;SDS011;56083;48.774;8.942;2023-05-08T12:00:45;5.57;;;3.55;;
69030;SDS011;56083;48.774;8.942;2023-05-08T12:03:12;3.58;;;3.25;;
69030;SDS011;56083;48.774;8.942;2023-05-08T12:05:43;5.47;;;4.03;;
69030;SDS011;56083;48.774;8.942;2023-05-08T12:08:09;6.00;;;4.30;;
69030;SDS011;56083;48.774;8.942;2023-05-08T12:13:17;7.18;;;4.65;;
69030;SDS011;56083;48.774;8.942;2023-05-08T12:15:54;5.50;;;4.77;;
69030;SDS011;56083;48.774;8.942;2023-05-08T12:18:21;5.82;;;4.80;;
69030;SDS011;56083;48.774;8.942;2023-05-08T12:20:51;6.18;;;4.82;;
69030;SDS011;56083;48.774;8.942;2023-05-08T12:23:17;5.47;;;4.75;;
69030;SDS011;56083;48.774;8.942;2023-05-08T12:25:43;9.63;;;5.60;;
69030;SDS011;56083;48.774;8.942;2023-05-08T12:28:09;11.30;;;5.95;;
69030;SDS011;56083;48.774;8.942;2023-05-08T12:30:35;7.57;;;6.10;;
69030;SDS011;56083;48.774;8.942;2023-05-08T12:33:01;9.48;;;6.47;;
69030;SDS011;56083;48.774;8.942;2023-05-08T12:35:30;9.77;;;6.07;;
69030;SDS011;56083;48.774;8.942;2023-05-08T12:38:00;13.65;;;7.30;;
69030;SDS011;56083;48.774;8.942;2023-05-08T12:40:31;11.52;;;7.13;;
69030;SDS011;56083;48.774;8.942;2023-05-08T12:43:04;11.80;;;6.60;;
69030;SDS011;56083;48.774;8.942;2023-05-08T12:45:33;13.23;;;7.65;;
69030;SDS011;56083;48.774;8.942;2023-05-08T12:48:03;14.17;;;8.57;;
69030;SDS011;56083;48.774;8.942;2023-05-08T12:50:34;14.35;;;8.52;;
69030;SDS011;56083;48.774;8.942;2023-05-08T12:53:09;14.73;;;9.40;;
69030;SDS011;56083;48.774;8.942;2023-05-08T12:55:36;15.90;;;10.85;;
69030;SDS011;56083;48.774;8.942;2023-05-08T12:58:04;19.83;;;11.85;;
69030;SDS011;56083;48.774;8.942;2023-05-08T13:00:36;18.20;;;12.27;;
69030;SDS011;56083;48.774;8.942;2023-05-08T13:03:05;22.25;;;13.68;;
69030;SDS011;56083;48.774;8.942;2023-05-08T13:05:37;19.65;;;14.88;;
69030;SDS011;56083;48.774;8.942;2023-05-08T13:08:07;24.63;;;14.65;;
69030;SDS011;56083;48.774;8.942;2023-05-08T13:10:44;20.92;;;14.82;;
69030;SDS011;56083;48.774;8.942;2023-05-08T13:13:14;21.15;;;15.90;;
69030;SDS011;56083;48.774;8.942;2023-05-08T13:15:45;19.65;;;14.90;;
69030;SDS011;56083;48.774;8.942;2023-05-08T13:18:11;19.30;;;14.75;;
69030;SDS011;56083;48.774;8.942;2023-05-08T13:20:38;21.83;;;15.88;;
69030;SDS011;56083;48.774;8.942;2023-05-08T13:23:04;24.80;;;16.17;;
69030;SDS011;56083;48.774;8.942;2023-05-08T13:25:31;21.77;;;16.55;;
69030;SDS011;56083;48.774;8.942;2023-05-08T13:27:57;20.65;;;16.23;;
69030;SDS011;56083;48.774;8.942;2023-05-08T13:30:23;23.17;;;16.10;;
69030;SDS011;56083;48.774;8.942;2023-05-08T13:32:50;21.45;;;16.30;;
69030;SDS011;56083;48.774;8.942;2023-05-08T13:35:17;20.67;;;15.70;;
69030;SDS011;56083;48.774;8.942;2023-05-08T13:37:43;19.17;;;15.20;;
69030;SDS011;56083;48.774;8.942;2023-05-08T13:40:10;20.85;;;14.55;;
69030;SDS011;56083;48.774;8.942;2023-05-08T13:42:36;20.95;;;14.65;;
69030;SDS011;56083;48.774;8.942;2023-05-08T13:45:03;17.80;;;12.90;;
69030;SDS011;56083;48.774;8.942;2023-05-08T13:47:29;19.60;;;13.85;;
69030;SDS011;56083;48.774;8.942;2023-05-08T13:49:55;21.40;;;13.93;;
69030;SDS011;56083;48.774;8.942;2023-05-08T13:52:21;16.95;;;12.65;;
69030;SDS011;56083;48.774;8.942;2023-05-08T13:54:46;18.85;;;14.20;;
69030;SDS011;56083;48.774;8.942;2023-05-08T13:57:12;24.65;;;15.52;;
69030;SDS011;56083;48.774;8.942;2023-05-08T13:59:38;21.20;;;14.52;;
69030;SDS011;56083;48.774;8.942;2023-05-08T14:02:03;22.23;;;15.40;;
69030;SDS011;56083;48.774;8.942;2023-05-08T14:04:29;21.85;;;15.23;;
69030;SDS011;56083;48.774;8.942;2023-05-08T14:06:55;17.88;;;14.20;;
69030;SDS011;56083;48.774;8.942;2023-05-08T14:09:20;20.88;;;14.02;;
69030;SDS011;56083;48.774;8.942;2023-05-08T14:11:46;16.92;;;13.32;;
69030;SDS011;56083;48.774;8.942;2023-05-08T14:14:11;16.88;;;12.70;;
69030;SDS011;56083;48.774;8.942;2023-05-08T14:16:37;18.58;;;12.50;;
69030;SDS011;56083;48.774;8.942;2023-05-08T14:19:03;18.65;;;11.68;;
69030;SDS011;56083;48.774;8.942;2023-05-08T14:21:28;18.45;;;10.45;;
69030;SDS011;56083;48.774;8.942;2023-05-08T14:23:55;13.23;;;10.38;;
69030;SDS011;56083;48.774;8.942;2023-05-08T14:26:21;15.60;;;10.80;;
69030;SDS011;56083;48.774;8.942;2023-05-08T14:28:46;13.07;;;10.57;;
69030;SDS011;56083;48.774;8.942;2023-05-08T14:31:12;12.35;;;10.07;;
69030;SDS011;56083;48.774;8.942;2023-05-08T14:33:37;11.38;;;9.25;;
69030;SDS011;56083;48.774;8.942;2023-05-08T14:36:03;14.38;;;10.07;;
69030;SDS011;56083;48.774;8.942;2023-05-08T14:38:29;19.98;;;11.48;;
69030;SDS011;56083;48.774;8.942;2023-05-08T14:40:55;14.40;;;11.23;;
69030;SDS011;56083;48.774;8.942;2023-05-08T14:43:21;13.52;;;9.98;;
69030;SDS011;56083;48.774;8.942;2023-05-08T14:45:47;12.90;;;11.13;;
69030;SDS011;56083;48.774;8.942;2023-05-08T14:48:13;15.65;;;11.40;;
69030;SDS011;56083;48.774;8.942;2023-05-08T14:50:39;14.63;;;11.63;;
69030;SDS011;56083;48.774;8.942;2023-05-08T14:53:04;17.30;;;12.05;;
69030;SDS011;56083;48.774;8.942;2023-05-08T14:55:31;13.02;;;10.57;;
69030;SDS011;56083;48.774;8.942;2023-05-08T14:57:57;15.50;;;11.98;;
69030;SDS011;56083;48.774;8.942;2023-05-08T15:00:22;16.40;;;12.50;;
69030;SDS011;56083;48.774;8.942;2023-05-08T15:02:48;16.23;;;11.98;;
69030;SDS011;56083;48.774;8.942;2023-05-08T15:05:14;16.55;;;12.63;;
69030;SDS011;56083;48.774;8.942;2023-05-08T15:07:40;16.80;;;13.05;;
69030;SDS011;56083;48.774;8.942;2023-05-08T15:10:05;16.05;;;12.63;;
69030;SDS011;56083;48.774;8.942;2023-05-08T15:12:31;18.77;;;13.45;;
69030;SDS011;56083;48.774;8.942;2023-05-08T15:14:57;18.65;;;14.57;;
69030;SDS011;56083;48.774;8.942;2023-05-08T15:17:23;19.48;;;14.73;;
69030;SDS011;56083;48.774;8.942;2023-05-08T15:19:48;17.60;;;13.70;;
69030;SDS011;56083;48.774;8.942;2023-05-08T15:22:14;23.65;;;14.90;;
69030;SDS011;56083;48.774;8.942;2023-05-08T15:24:41;19.25;;;15.85;;
69030;SDS011;56083;48.774;8.942;2023-05-08T15:27:09;19.25;;;15.07;;
69030;SDS011;56083;48.774;8.942;2023-05-08T15:29:35;21.23;;;14.23;;
69030;SDS011;56083;48.774;8.942;2023-05-08T15:32:03;20.60;;;15.25;;
69030;SDS011;56083;48.774;8.942;2023-05-08T15:34:29;16.83;;;14.32;;
69030;SDS011;56083;48.774;8.942;2023-05-08T15:36:55;17.67;;;14.48;;
69030;SDS011;56083;48.774;8.942;2023-05-08T15:39:20;18.15;;;16.15;;
69030;SDS011;56083;48.774;8.942;2023-05-08T15:41:46;19.17;;;14.98;;
69030;SDS011;56083;48.774;8.942;2023-05-08T15:44:12;24.02;;;17.02;;
69030;SDS011;56083;48.774;8.942;2023-05-08T15:46:38;22.95;;;16.17;;